ěÝzenÝ letovÚho provozu ╚eskÚ republiky
Letiste: LKMT Aktualizace: 19.06.2024 05:00:40  UTC
 METAR LKMT 19.06. 05:00 ...
METAR LKMT 190500Z VRB02KT CAVOK 22/18 Q1013 NOSIG=
 TAF LKMT 18.06. 23:00 ...
TAF LKMT 182300Z 1900/2000 22008KT CAVOK      BECMG 1916/1918 36008KT 9999 BKN040      TEMPO 1918/1922 03012G30KT 2000 TSRA SCT025CB      PROB30 TEMPO 1918/1920 TSGR SCT020CB=